• Join FlightAware (Why Join?)
  • Login
  • US Flag 
06:56PM EDT


 

Airport Tracker/Info


-or-


 

Live Flight TrackerFlight Track Log ✈ PDT4207 ✈ 25-Feb-2014 ✈ KPHL - KBGM

Flight Track Log - Related Links

Times and Time Zones

All times are in EST time to prevent confusion due to time zone crossing. See the PDT4207 flight status page for this flight to view local times or setup timezone preferences in your user account.

Time Position Orientation Groundspeed Altitude Reporting Facility
EST Latitude Longitude Course Direction KTS MPH feet Rate Location/Type
09:34PM 39.9000 -75.2500 330° Northwest 118 136 600  Level Philadelphia TRACON
09:35PM 39.9167 -75.2833 303° West 144 166 2,200 1,560 Climbing Philadelphia TRACON
09:36PM 40.0193 -75.3693 323° Northwest  Level FlightAware Approximate
09:36PM 39.9167 -75.3333 270° West 146 168 3,900  Level Philadelphia TRACON
09:37PM 40.0699 -75.4183 339° North  Level FlightAware Approximate
09:37PM 39.9333 -75.3833 294° West 151 174 5,300  Level Philadelphia TRACON
09:38PM 40.1170 -75.4670 323° Northwest  Level FlightAware Approximate
09:38PM 39.9167 -75.4500 252° West 152 175 6,800  Level Philadelphia TRACON
09:39PM 40.1687 -75.5140 330° Northwest  Level FlightAware Approximate
09:39PM 39.9167 -75.5000 270° West 147 169 8,300  Level Philadelphia TRACON
09:40PM 39.9856 -75.4931 North 188 216 9,000 300 Climbing New York Center
09:41PM 40.0453 -75.5106 347° North 210 242 9,000  Level New York Center
09:42PM 40.0964 -75.5358 339° North 222 255 9,100 480 Climbing New York Center
09:43PM 40.1567 -75.5453 353° North 207 238 10,000 420 Climbing New York Center
09:44PM 40.2189 -75.5525 355° North 207 238 10,000  Level New York Center
09:45PM 40.2564 -75.6011 315° West 194 223 10,000  Level New York Center
09:46PM 40.2872 -75.6606 304° West 192 221 10,000  Level New York Center
09:47PM 40.3186 -75.7064 312° West 197 227 10,000  Level New York Center
09:48PM 40.3539 -75.7633 309° West 197 227 10,000  Level New York Center
09:49PM 40.3908 -75.8233 309° West 197 227 10,000  Level New York Center
09:50PM 40.4303 -75.8781 313° West 197 227 10,000  Level New York Center
09:51PM 40.4653 -75.9325 310° West 197 227 10,000  Level New York Center
09:52PM 40.4944 -75.9836 307° West 191 220 10,000  Level New York Center
09:53PM 40.5311 -76.0464 308° West 191 220 10,000  Level New York Center
09:54PM 40.5683 -76.1042 310° West 196 226 10,000  Level New York Center
09:55PM 40.6214 -76.1247 344° North 196 226 10,000  Level New York Center
09:56PM 40.6817 -76.1319 355° North 211 243 10,000 -60 Level New York Center
09:57PM 40.7414 -76.1478 349° North 216 249 9,900 -60 Descending New York Center
09:58PM 40.8100 -76.1503 358° North 221 254 9,900  Level New York Center
09:59PM 40.8700 -76.1606 353° North 221 254 9,900  Level New York Center
10:00PM 40.9256 -76.1731 350° North 215 247 9,900  Level New York Center
10:01PM 40.9942 -76.1786 357° North 220 253 9,900  Level New York Center
10:02PM 41.0561 -76.1889 353° North 220 253 9,900  Level New York Center
10:03PM 41.1119 -76.1989 352° North 220 253 9,900  Level New York Center
10:04PM 41.1764 -76.2042 356° North 220 253 9,900 60 Level New York Center
10:05PM 41.2447 -76.2097 357° North 220 253 10,100 60 Climbing New York Center
10:06PM 41.3075 -76.2064 North 220 253 10,100  Level New York Center
10:07PM 41.3725 -76.1950 North 225 259 10,100  Level New York Center
10:08PM 41.4308 -76.1969 359° North 231 266 10,100  Level New York Center
10:09PM 41.5039 -76.1892 North 236 272 10,100 -300 Level New York Center
10:10PM 41.5731 -76.1808 North 241 277 9,500 -540 Descending New York Center
10:11PM 41.6419 -76.1808 360° North 241 277 9,100 -300 Descending New York Center
10:12PM 41.7003 -76.1772 North 236 272 9,000 -360 Descending New York Center
10:13PM 41.7650 -76.1769 360° North 236 272 8,400 -960 Descending New York Center
10:14PM 41.8403 -76.1692 North 236 272 7,100 -1,140 Descending New York Center
10:15PM 41.9058 -76.1467 14° North 231 266 6,200 -960 Descending New York Center
10:16PM 41.9603 -76.0953 35° Northeast 231 266 5,200 -900 Descending New York Center
10:17PM 42.0103 -76.0461 36° Northeast 241 277 4,400 -840 Descending New York Center
10:18PM 42.0686 -75.9950 33° Northeast 248 285 3,600 -480 Descending New York Center
10:19PM 42.1122 -75.9536 35° Northeast 231 266 3,500 -420 Descending New York Center
10:20PM 42.1528 -75.9317 22° Northeast 183 211 2,800 -720 Descending New York Center
10:21PM 42.1917 -75.9431 348° North 135 155 2,100 -720 Descending New York Center